Time;durP1;ratioP1;P1;durP2;ratioP2;P2;SDS_P1;SDS_P2;PMS_P1;PMS_P2;Temp;Humidity;BMP_temperature;BMP_pressure;BME280_temperature;BME280_humidity;BME280_pressure;Samples;Min_cycle;Max_cycle;Signal;HPM_P1;HPM_P2
2022/03/12 00:00:19;;;;;;;14.32;7.18;;;;;;;;;;4973450;28;20518;-75
2022/03/12 00:02:46;;;;;;;12.75;7.90;;;;;;;;;;4973382;28;20102;-74
2022/03/12 00:05:14;;;;;;;13.82;7.70;;;;;;;;;;4972916;28;20083;-73
2022/03/12 00:07:42;;;;;;;12.80;6.78;;;;;;;;;;4972482;28;20047;-73
2022/03/12 00:10:14;;;;;;;14.88;7.40;;;;;;;;;;4972435;28;20057;-74
2022/03/12 00:12:41;;;;;;;13.48;7.05;;;;;;;;;;4972799;28;20051;-74
2022/03/12 00:15:11;;;;;;;14.40;7.95;;;;;;;;;;4973262;28;20043;-74
2022/03/12 00:17:43;;;;;;;12.25;7.97;;;;;;;;;;4972687;28;20081;-72
2022/03/12 00:20:13;;;;;;;14.20;7.00;;;;;;;;;;4972278;28;20055;-72
2022/03/12 00:22:47;;;;;;;12.98;6.95;;;;;;;;;;4972488;28;20464;-72
2022/03/12 00:25:18;;;;;;;14.82;7.43;;;;;;;;;;4971998;28;20452;-72
2022/03/12 00:27:46;;;;;;;11.55;6.22;;;;;;;;;;4971824;28;20058;-72
2022/03/12 00:30:17;;;;;;;14.55;6.70;;;;;;;;;;4972383;28;20458;-72
2022/03/12 00:32:45;;;;;;;11.80;7.47;;;;;;;;;;4973854;28;20059;-72
2022/03/12 00:35:15;;;;;;;13.38;7.50;;;;;;;;;;4973571;28;20067;-72
2022/03/12 00:37:42;;;;;;;13.10;7.45;;;;;;;;;;4973633;28;20141;-72
2022/03/12 00:40:09;;;;;;;12.35;7.22;;;;;;;;;;4973977;28;20058;-71
2022/03/12 00:42:38;;;;;;;10.75;6.68;;;;;;;;;;4973840;28;20070;-72
2022/03/12 00:45:06;;;;;;;14.35;7.65;;;;;;;;;;4973951;28;20150;-72
2022/03/12 00:47:33;;;;;;;14.40;7.05;;;;;;;;;;4973703;28;20400;-72
2022/03/12 00:50:00;;;;;;;12.55;7.40;;;;;;;;;;4973668;28;20138;-72
2022/03/12 00:52:27;;;;;;;14.45;7.28;;;;;;;;;;4973065;28;20055;-72
2022/03/12 00:54:54;;;;;;;13.95;6.65;;;;;;;;;;4973453;28;20548;-72
2022/03/12 00:57:21;;;;;;;14.48;7.40;;;;;;;;;;4972906;28;20068;-72
2022/03/12 00:59:50;;;;;;;11.98;7.28;;;;;;;;;;4973195;28;20054;-72
2022/03/12 01:02:18;;;;;;;12.82;6.90;;;;;;;;;;4973183;28;20050;-72
2022/03/12 01:04:45;;;;;;;13.07;7.28;;;;;;;;;;4972476;28;20053;-72
2022/03/12 01:07:12;;;;;;;15.75;7.88;;;;;;;;;;4973175;28;20054;-71
2022/03/12 01:09:40;;;;;;;13.93;7.40;;;;;;;;;;4973402;28;20142;-71
2022/03/12 01:12:09;;;;;;;13.43;7.35;;;;;;;;;;4973025;28;20049;-71
2022/03/12 01:14:38;;;;;;;12.25;6.50;;;;;;;;;;4972368;28;20077;-72
2022/03/12 01:17:07;;;;;;;13.85;6.80;;;;;;;;;;4972901;28;20051;-71
2022/03/12 01:19:35;;;;;;;12.57;7.07;;;;;;;;;;4973268;28;20051;-72
2022/03/12 01:22:03;;;;;;;16.48;7.18;;;;;;;;;;4973060;28;20062;-71
2022/03/12 01:24:30;;;;;;;10.85;6.75;;;;;;;;;;4973392;28;20471;-72
2022/03/12 01:26:57;;;;;;;11.27;7.00;;;;;;;;;;4973191;28;20457;-71
2022/03/12 01:29:25;;;;;;;13.38;6.95;;;;;;;;;;4972759;28;20101;-71
2022/03/12 01:31:52;;;;;;;14.40;7.18;;;;;;;;;;4973340;28;20671;-71
2022/03/12 01:34:21;;;;;;;12.77;6.78;;;;;;;;;;4973056;28;20061;-71
2022/03/12 01:36:48;;;;;;;14.15;7.07;;;;;;;;;;4973188;28;20061;-71
2022/03/12 01:39:15;;;;;;;10.35;6.90;;;;;;;;;;4972876;28;20055;-72
2022/03/12 01:41:43;;;;;;;12.68;7.22;;;;;;;;;;4972915;28;20057;-71
2022/03/12 01:44:10;;;;;;;13.02;7.63;;;;;;;;;;4972606;28;20057;-72
2022/03/12 01:46:42;;;;;;;13.10;6.50;;;;;;;;;;4972761;28;20054;-72
2022/03/12 01:49:10;;;;;;;14.35;6.88;;;;;;;;;;4972851;28;20070;-72
2022/03/12 01:51:40;;;;;;;13.27;6.47;;;;;;;;;;4973579;28;20441;-72
2022/03/12 01:54:07;;;;;;;13.75;6.90;;;;;;;;;;4972954;28;20629;-72
2022/03/12 01:56:35;;;;;;;12.90;6.93;;;;;;;;;;4972544;28;20141;-72
2022/03/12 01:59:02;;;;;;;13.35;6.53;;;;;;;;;;4972857;28;20058;-72
2022/03/12 02:01:31;;;;;;;16.65;7.57;;;;;;;;;;4972588;28;20054;-72
2022/03/12 02:04:00;;;;;;;12.45;6.95;;;;;;;;;;4972660;28;20097;-72
2022/03/12 02:06:28;;;;;;;11.07;6.95;;;;;;;;;;4972437;28;20061;-72
2022/03/12 02:08:58;;;;;;;12.80;7.35;;;;;;;;;;4972534;28;20054;-72
2022/03/12 02:11:28;;;;;;;12.05;6.75;;;;;;;;;;4972945;28;20397;-72
2022/03/12 02:14:00;;;;;;;12.93;6.97;;;;;;;;;;4972848;28;20110;-72
2022/03/12 02:16:28;;;;;;;13.43;6.30;;;;;;;;;;4973533;28;20118;-72
2022/03/12 02:18:56;;;;;;;12.50;6.50;;;;;;;;;;4975990;28;20144;-72
2022/03/12 02:21:34;;;;;;;13.73;6.72;;;;;;;;;;4976345;28;20487;-72
2022/03/12 02:24:04;;;;;;;14.93;7.57;;;;;;;;;;4976201;28;20086;-72
2022/03/12 02:26:31;;;;;;;14.02;6.88;;;;;;;;;;4975915;28;20051;-72
2022/03/12 02:28:58;;;;;;;11.23;6.53;;;;;;;;;;4975994;28;20054;-71
2022/03/12 02:31:27;;;;;;;12.68;6.68;;;;;;;;;;4975897;28;20053;-72
2022/03/12 02:34:01;;;;;;;11.05;6.28;;;;;;;;;;4975988;28;20065;-72
2022/03/12 02:36:28;;;;;;;13.65;7.32;;;;;;;;;;4975655;28;20058;-72
2022/03/12 02:38:57;;;;;;;11.57;6.63;;;;;;;;;;4976234;28;20057;-72
2022/03/12 02:41:27;;;;;;;11.77;6.60;;;;;;;;;;4975902;28;20058;-72
2022/03/12 02:43:54;;;;;;;12.20;6.87;;;;;;;;;;4975696;28;20057;-72
2022/03/12 02:46:29;;;;;;;12.50;7.20;;;;;;;;;;4975470;28;20766;-72
2022/03/12 02:48:57;;;;;;;11.65;7.18;;;;;;;;;;5002511;23;20109;-58
2022/03/12 02:51:25;;;;;;;12.95;6.85;;;;;;;;;;5000397;28;20085;-57
2022/03/12 02:53:56;;;;;;;12.88;7.90;;;;;;;;;;5001185;28;20085;-58
2022/03/12 02:56:25;;;;;;;13.32;7.15;;;;;;;;;;4999963;28;20051;-58
2022/03/12 02:58:52;;;;;;;13.43;6.97;;;;;;;;;;5000880;28;20126;-59
2022/03/12 03:01:19;;;;;;;11.95;7.00;;;;;;;;;;5000373;28;20201;-58
2022/03/12 03:03:47;;;;;;;14.30;6.95;;;;;;;;;;5000813;28;20129;-58
2022/03/12 03:06:15;;;;;;;11.27;6.55;;;;;;;;;;5000342;28;20056;-57
2022/03/12 03:08:42;;;;;;;13.82;6.95;;;;;;;;;;5001383;28;20507;-58
2022/03/12 03:11:12;;;;;;;13.40;6.72;;;;;;;;;;5001652;28;20136;-59
2022/03/12 03:13:44;;;;;;;11.47;6.57;;;;;;;;;;5001631;28;20058;-59
2022/03/12 03:16:21;;;;;;;13.00;7.57;;;;;;;;;;5001486;28;20061;-58
2022/03/12 03:18:51;;;;;;;13.52;6.72;;;;;;;;;;5001389;28;20061;-57
2022/03/12 03:21:20;;;;;;;12.40;6.43;;;;;;;;;;5000942;28;20046;-59
2022/03/12 03:23:47;;;;;;;13.85;7.05;;;;;;;;;;5001096;28;20076;-58
2022/03/12 03:26:15;;;;;;;16.58;6.78;;;;;;;;;;5000672;28;20160;-57
2022/03/12 03:28:44;;;;;;;17.38;8.60;;;;;;;;;;4999639;28;20054;-58
2022/03/12 03:31:11;;;;;;;12.48;6.95;;;;;;;;;;5000223;28;20046;-58
2022/03/12 03:33:38;;;;;;;12.45;6.80;;;;;;;;;;5000773;28;20377;-58
2022/03/12 03:36:06;;;;;;;13.13;6.82;;;;;;;;;;5000580;28;20093;-58
2022/03/12 03:38:33;;;;;;;13.43;7.45;;;;;;;;;;5000408;28;20133;-57
2022/03/12 03:41:00;;;;;;;14.95;7.43;;;;;;;;;;5000456;28;20061;-58
2022/03/12 03:43:27;;;;;;;13.52;7.47;;;;;;;;;;5000214;28;20076;-58
2022/03/12 03:45:58;;;;;;;13.63;7.15;;;;;;;;;;5000451;28;20084;-59
2022/03/12 03:48:25;;;;;;;;;;;;;;;;;;5000930;28;20054;-59
2022/03/12 03:50:53;;;;;;;12.60;6.97;;;;;;;;;;5000938;28;19921;-58
2022/03/12 03:53:23;;;;;;;12.38;7.40;;;;;;;;;;5000637;28;20046;-57
2022/03/12 03:55:53;;;;;;;13.73;7.15;;;;;;;;;;5000687;28;20049;-59
2022/03/12 03:58:20;;;;;;;14.13;7.23;;;;;;;;;;4999848;28;20056;-59
2022/03/12 04:00:57;;;;;;;12.48;7.30;;;;;;;;;;4999579;28;20065;-59
2022/03/12 04:03:24;;;;;;;13.07;7.35;;;;;;;;;;4994045;28;20171;-60
2022/03/12 04:05:52;;;;;;;12.32;6.78;;;;;;;;;;4993631;28;20054;-60
2022/03/12 04:08:21;;;;;;;15.00;7.22;;;;;;;;;;4993255;28;20061;-59
2022/03/12 04:10:48;;;;;;;12.65;7.28;;;;;;;;;;4993679;28;20050;-60
2022/03/12 04:13:18;;;;;;;13.85;8.48;;;;;;;;;;4993369;28;20050;-57
2022/03/12 04:15:45;;;;;;;14.75;7.40;;;;;;;;;;4993122;28;20132;-59
2022/03/12 04:18:15;;;;;;;14.90;7.07;;;;;;;;;;4993200;28;20137;-60
2022/03/12 04:20:47;;;;;;;12.97;6.73;;;;;;;;;;4993783;28;20078;-60
2022/03/12 04:23:15;;;;;;;16.98;8.77;;;;;;;;;;4993476;28;20381;-58
2022/03/12 04:25:42;;;;;;;13.00;7.03;;;;;;;;;;4993492;28;20337;-59
2022/03/12 04:28:09;;;;;;;15.15;7.78;;;;;;;;;;4992906;28;20054;-59
2022/03/12 04:30:38;;;;;;;13.48;7.30;;;;;;;;;;4993421;28;20058;-60
2022/03/12 04:33:07;;;;;;;14.07;6.95;;;;;;;;;;4993277;28;20058;-60
2022/03/12 04:35:36;;;;;;;15.15;7.20;;;;;;;;;;4993098;28;20060;-58
2022/03/12 04:38:04;;;;;;;13.55;6.47;;;;;;;;;;4993183;28;20070;-60
2022/03/12 04:40:31;;;;;;;13.98;7.20;;;;;;;;;;4992724;28;20085;-60
2022/03/12 04:42:58;;;;;;;13.05;7.95;;;;;;;;;;4992955;28;20058;-59
2022/03/12 04:45:28;;;;;;;14.25;7.00;;;;;;;;;;4992705;28;20054;-59
2022/03/12 04:47:55;;;;;;;13.57;7.38;;;;;;;;;;4992766;28;20085;-58
2022/03/12 04:50:24;;;;;;;12.32;7.10;;;;;;;;;;4992962;28;20050;-59
2022/03/12 04:52:57;;;;;;;14.27;7.13;;;;;;;;;;4993000;28;20101;-58
2022/03/12 04:55:26;;;;;;;14.43;8.25;;;;;;;;;;4992657;28;20054;-58
2022/03/12 04:57:53;;;;;;;14.70;7.68;;;;;;;;;;4992909;28;20061;-59
2022/03/12 05:00:25;;;;;;;16.77;7.85;;;;;;;;;;4992813;28;20507;-59
2022/03/12 05:02:55;;;;;;;16.02;7.72;;;;;;;;;;4993143;28;20561;-59
2022/03/12 05:05:23;;;;;;;13.52;7.15;;;;;;;;;;4992829;28;20491;-59
2022/03/12 05:07:51;;;;;;;11.80;7.03;;;;;;;;;;4992740;28;20327;-59
2022/03/12 05:10:19;;;;;;;13.30;6.53;;;;;;;;;;4992579;28;20472;-59
2022/03/12 05:12:48;;;;;;;13.35;7.50;;;;;;;;;;4992575;28;20053;-60
2022/03/12 05:15:17;;;;;;;15.00;7.25;;;;;;;;;;4992466;28;20145;-59
2022/03/12 05:17:48;;;;;;;13.93;7.55;;;;;;;;;;4992651;28;20066;-61
2022/03/12 05:20:21;;;;;;;14.73;7.47;;;;;;;;;;4992396;28;20054;-59
2022/03/12 05:22:49;;;;;;;14.90;7.13;;;;;;;;;;4992674;28;20066;-59
2022/03/12 05:25:18;;;;;;;12.57;7.07;;;;;;;;;;4992968;28;20055;-59
2022/03/12 05:27:47;;;;;;;13.88;8.18;;;;;;;;;;4998661;28;20076;-58
2022/03/12 05:30:14;;;;;;;12.35;8.10;;;;;;;;;;4999248;28;20050;-59
2022/03/12 05:32:42;;;;;;;13.65;7.53;;;;;;;;;;4999076;28;20053;-57
2022/03/12 05:35:09;;;;;;;14.30;7.40;;;;;;;;;;4998366;28;20089;-60
2022/03/12 05:37:38;;;;;;;15.18;7.75;;;;;;;;;;4998820;28;20054;-60
2022/03/12 05:40:07;;;;;;;12.30;7.22;;;;;;;;;;4998639;28;20137;-60
2022/03/12 05:42:34;;;;;;;13.02;7.03;;;;;;;;;;4997957;28;20145;-60
2022/03/12 05:45:05;;;;;;;13.75;7.63;;;;;;;;;;4997810;28;20523;-58
2022/03/12 05:47:36;;;;;;;14.82;7.82;;;;;;;;;;4997678;28;20050;-60
2022/03/12 05:50:03;;;;;;;;;;;;;;;;;;4998463;28;20053;-59
2022/03/12 05:52:30;;;;;;;14.23;8.25;;;;;;;;;;5000278;28;20454;-59
2022/03/12 05:54:57;;;;;;;15.60;7.30;;;;;;;;;;5001451;28;20058;-59
2022/03/12 05:57:24;;;;;;;16.00;7.40;;;;;;;;;;5001607;28;20057;-59
2022/03/12 05:59:52;;;;;;;14.25;7.38;;;;;;;;;;5001602;28;20445;-59
2022/03/12 06:02:21;;;;;;;14.60;8.07;;;;;;;;;;5001111;28;20065;-60
2022/03/12 06:04:48;;;;;;;14.10;7.72;;;;;;;;;;5000713;28;20050;-60
2022/03/12 06:07:15;;;;;;;16.85;7.70;;;;;;;;;;5000614;28;20057;-59
2022/03/12 06:09:42;;;;;;;16.05;7.82;;;;;;;;;;5001190;28;20082;-60
2022/03/12 06:12:12;;;;;;;14.10;7.13;;;;;;;;;;5000817;28;20115;-59
2022/03/12 06:14:39;;;;;;;14.55;7.32;;;;;;;;;;5001749;28;20054;-60
2022/03/12 06:17:07;;;;;;;12.98;6.88;;;;;;;;;;5002127;28;20535;-60
2022/03/12 06:19:36;;;;;;;16.60;7.85;;;;;;;;;;5001091;28;20050;-57
2022/03/12 06:22:03;;;;;;;14.65;7.90;;;;;;;;;;5000908;28;20074;-59
2022/03/12 06:24:30;;;;;;;14.13;7.68;;;;;;;;;;5000860;28;20214;-59
2022/03/12 06:26:58;;;;;;;13.75;7.30;;;;;;;;;;5000185;28;20050;-57
2022/03/12 06:29:25;;;;;;;13.30;7.78;;;;;;;;;;5000656;28;20250;-59
2022/03/12 06:31:52;;;;;;;14.88;8.90;;;;;;;;;;5001371;28;20482;-58
2022/03/12 06:34:19;;;;;;;15.38;7.40;;;;;;;;;;5001050;28;20058;-59
2022/03/12 06:36:47;;;;;;;12.57;7.22;;;;;;;;;;5000421;28;20057;-56
2022/03/12 06:39:14;;;;;;;15.75;7.50;;;;;;;;;;4999690;28;20149;-59
2022/03/12 06:41:45;;;;;;;13.55;7.15;;;;;;;;;;5000124;28;20065;-57
2022/03/12 06:44:16;;;;;;;16.38;7.80;;;;;;;;;;5000360;28;20114;-59
2022/03/12 06:46:43;;;;;;;16.38;8.00;;;;;;;;;;5000275;28;20137;-59
2022/03/12 06:49:10;;;;;;;13.18;8.00;;;;;;;;;;4956521;28;1266562;-58
2022/03/12 06:51:38;;;;;;;14.70;8.25;;;;;;;;;;5001464;28;20089;-59
2022/03/12 06:54:07;;;;;;;15.27;7.70;;;;;;;;;;5001339;28;20116;-59
2022/03/12 06:56:38;;;;;;;13.10;7.47;;;;;;;;;;5001200;28;20551;-59
2022/03/12 06:59:06;;;;;;;18.40;7.93;;;;;;;;;;5000438;28;20055;-58
2022/03/12 07:01:33;;;;;;;15.30;8.25;;;;;;;;;;5000959;28;20058;-59
2022/03/12 07:04:00;;;;;;;13.88;8.30;;;;;;;;;;4999539;28;20054;-58
2022/03/12 07:06:27;;;;;;;16.08;8.27;;;;;;;;;;5000982;28;20133;-58
2022/03/12 07:08:54;;;;;;;13.85;8.13;;;;;;;;;;4999481;28;20074;-59
2022/03/12 07:11:23;;;;;;;14.48;9.57;;;;;;;;;;5000202;28;20054;-58
2022/03/12 07:13:50;;;;;;;15.07;9.00;;;;;;;;;;5000094;28;20054;-58
2022/03/12 07:16:17;;;;;;;15.50;8.50;;;;;;;;;;5000137;28;20078;-58
2022/03/12 07:18:44;;;;;;;13.75;8.13;;;;;;;;;;5000011;28;20054;-59
2022/03/12 07:21:11;;;;;;;17.70;9.05;;;;;;;;;;4999735;28;20046;-57
2022/03/12 07:23:39;;;;;;;17.63;9.20;;;;;;;;;;5000375;28;20050;-59
2022/03/12 07:26:06;;;;;;;15.43;8.48;;;;;;;;;;5000058;28;20089;-59
2022/03/12 07:28:35;;;;;;;15.25;8.50;;;;;;;;;;5000415;28;20054;-58
2022/03/12 07:31:03;;;;;;;17.25;8.85;;;;;;;;;;5000769;28;20556;-57
2022/03/12 07:33:30;;;;;;;15.43;8.82;;;;;;;;;;5000516;28;20536;-59
2022/03/12 07:35:57;;;;;;;18.10;9.38;;;;;;;;;;5000096;28;20058;-59
2022/03/12 07:38:24;;;;;;;18.17;9.73;;;;;;;;;;4999769;28;20046;-59
2022/03/12 07:40:51;;;;;;;15.73;8.38;;;;;;;;;;4999374;28;20120;-59
2022/03/12 07:43:20;;;;;;;17.50;9.10;;;;;;;;;;4999553;28;20137;-58
2022/03/12 07:45:48;;;;;;;19.63;9.45;;;;;;;;;;4999613;28;20082;-59
2022/03/12 07:48:15;;;;;;;18.15;10.10;;;;;;;;;;4998735;28;20443;-59
2022/03/12 07:50:44;;;;;;;16.25;8.73;;;;;;;;;;4999072;28;20154;-59
2022/03/12 07:53:12;;;;;;;17.48;8.90;;;;;;;;;;4999240;28;20050;-59
2022/03/12 07:55:41;;;;;;;17.70;10.13;;;;;;;;;;4998971;28;20050;-59
2022/03/12 07:58:09;;;;;;;17.05;9.68;;;;;;;;;;4998979;28;20054;-58
2022/03/12 08:00:36;;;;;;;16.35;9.95;;;;;;;;;;4999468;28;20113;-58
2022/03/12 08:03:05;;;;;;;17.80;9.82;;;;;;;;;;4998346;28;20070;-58
2022/03/12 08:05:32;;;;;;;18.30;10.30;;;;;;;;;;4998981;28;20046;-58
2022/03/12 08:08:00;;;;;;;19.10;9.63;;;;;;;;;;4999796;28;20455;-58
2022/03/12 08:10:27;;;;;;;20.30;10.70;;;;;;;;;;4998508;28;20046;-58
2022/03/12 08:12:58;;;;;;;20.00;11.25;;;;;;;;;;4999347;28;20096;-60
2022/03/12 08:15:26;;;;;;;20.02;11.93;;;;;;;;;;4998269;28;20047;-60
2022/03/12 08:17:53;;;;;;;21.27;11.20;;;;;;;;;;4998456;28;20081;-58
2022/03/12 08:20:21;;;;;;;25.00;11.45;;;;;;;;;;4998560;28;20137;-57
2022/03/12 08:22:48;;;;;;;19.52;10.35;;;;;;;;;;4998075;28;20054;-58
2022/03/12 08:25:16;;;;;;;19.75;11.40;;;;;;;;;;4998572;28;20566;-59
2022/03/12 08:27:44;;;;;;;19.27;11.57;;;;;;;;;;4999072;28;20058;-59
2022/03/12 08:30:14;;;;;;;17.60;11.07;;;;;;;;;;4998175;28;20357;-58
2022/03/12 08:32:42;;;;;;;17.13;9.32;;;;;;;;;;4998808;28;20497;-60
2022/03/12 08:35:12;;;;;;;18.50;10.27;;;;;;;;;;4998392;28;20074;-60
2022/03/12 08:37:41;;;;;;;19.15;10.52;;;;;;;;;;4998917;28;20058;-58
2022/03/12 08:40:09;;;;;;;22.67;11.25;;;;;;;;;;4998186;28;20491;-56
2022/03/12 08:42:36;;;;;;;18.90;11.00;;;;;;;;;;4998098;28;20054;-57
2022/03/12 08:45:04;;;;;;;18.83;10.40;;;;;;;;;;4998166;28;20141;-58
2022/03/12 08:47:32;;;;;;;21.65;10.85;;;;;;;;;;4997644;28;20046;-59
2022/03/12 08:49:59;;;;;;;18.83;10.38;;;;;;;;;;4990530;23;20054;-72
2022/03/12 08:52:26;;;;;;;21.33;11.50;;;;;;;;;;4973216;28;20419;-73
2022/03/12 08:54:55;;;;;;;19.98;11.20;;;;;;;;;;4973033;28;20055;-73
2022/03/12 08:57:22;;;;;;;19.55;11.27;;;;;;;;;;4973433;28;20050;-72
2022/03/12 08:59:49;;;;;;;17.52;10.02;;;;;;;;;;4959515;28;20134;-72
2022/03/12 09:02:16;;;;;;;18.40;10.45;;;;;;;;;;4954042;28;20468;-73
2022/03/12 09:04:43;;;;;;;23.38;11.20;;;;;;;;;;4953891;29;20051;-72
2022/03/12 09:07:10;;;;;;;18.45;10.43;;;;;;;;;;4953649;29;20062;-73
2022/03/12 09:09:37;;;;;;;21.55;11.38;;;;;;;;;;4953748;28;20132;-72
2022/03/12 09:12:08;;;;;;;17.85;10.05;;;;;;;;;;4954092;29;20420;-72
2022/03/12 09:14:35;;;;;;;20.70;10.80;;;;;;;;;;4954140;29;20061;-72
2022/03/12 09:17:03;;;;;;;22.73;12.82;;;;;;;;;;4954044;29;20117;-73
2022/03/12 09:19:32;;;;;;;18.35;10.90;;;;;;;;;;4954459;28;20051;-74
2022/03/12 09:21:59;;;;;;;21.05;12.27;;;;;;;;;;4954345;29;20054;-74
2022/03/12 09:24:27;;;;;;;25.60;13.20;;;;;;;;;;4955075;29;20058;-74
2022/03/12 09:26:54;;;;;;;27.80;15.25;;;;;;;;;;4956407;28;20047;-74
2022/03/12 09:29:23;;;;;;;26.00;15.38;;;;;;;;;;4958975;28;20051;-76
2022/03/12 09:31:50;;;;;;;22.73;11.57;;;;;;;;;;4958450;29;20066;-75
2022/03/12 09:34:17;;;;;;;20.85;12.07;;;;;;;;;;4958811;29;20043;-76
2022/03/12 09:36:44;;;;;;;21.95;11.25;;;;;;;;;;4957999;29;20083;-75
2022/03/12 09:39:11;;;;;;;20.55;11.38;;;;;;;;;;4958304;28;20114;-75
2022/03/12 09:41:40;;;;;;;22.38;11.15;;;;;;;;;;4958288;29;20055;-75
2022/03/12 09:44:07;;;;;;;20.65;12.23;;;;;;;;;;4962606;28;20055;-76
2022/03/12 09:46:36;;;;;;;21.52;12.45;;;;;;;;;;4978154;28;20110;-75
2022/03/12 09:49:06;;;;;;;23.30;13.23;;;;;;;;;;4977562;28;20412;-74
2022/03/12 09:51:33;;;;;;;21.65;11.80;;;;;;;;;;4977172;28;20051;-74
2022/03/12 09:54:03;;;;;;;21.45;12.07;;;;;;;;;;4978587;28;20046;-74
2022/03/12 09:56:30;;;;;;;18.48;11.25;;;;;;;;;;4978824;28;20051;-74
2022/03/12 09:58:57;;;;;;;22.05;11.90;;;;;;;;;;4977654;28;20054;-75
2022/03/12 10:01:24;;;;;;;22.20;12.60;;;;;;;;;;4977181;28;20069;-75
2022/03/12 10:03:53;;;;;;;22.60;11.27;;;;;;;;;;4977486;28;20470;-74
2022/03/12 10:06:20;;;;;;;20.55;11.48;;;;;;;;;;4977343;28;20105;-75
2022/03/12 10:08:47;;;;;;;22.85;11.98;;;;;;;;;;4976488;28;20059;-74
2022/03/12 10:11:14;;;;;;;20.67;12.73;;;;;;;;;;4976886;28;20057;-75
2022/03/12 10:13:41;;;;;;;21.58;11.40;;;;;;;;;;4976713;28;20471;-73
2022/03/12 10:16:09;;;;;;;21.33;11.25;;;;;;;;;;4976586;28;20167;-75
2022/03/12 10:18:37;;;;;;;19.05;11.32;;;;;;;;;;4976856;28;20062;-75
2022/03/12 10:21:05;;;;;;;20.67;10.52;;;;;;;;;;4976764;28;20049;-74
2022/03/12 10:23:33;;;;;;;22.00;12.25;;;;;;;;;;4976821;28;20053;-75
2022/03/12 10:25:59;;;;;;;23.55;12.70;;;;;;;;;;4976468;28;20109;-75
2022/03/12 10:28:29;;;;;;;22.98;13.00;;;;;;;;;;4976425;28;20047;-74
2022/03/12 10:30:56;;;;;;;20.92;12.68;;;;;;;;;;4976750;28;20051;-75
2022/03/12 10:33:25;;;;;;;22.75;12.73;;;;;;;;;;4976322;28;20058;-75
2022/03/12 10:35:53;;;;;;;22.70;11.95;;;;;;;;;;4976242;28;20055;-74
2022/03/12 10:38:25;;;;;;;20.35;12.95;;;;;;;;;;4976377;28;20080;-75
2022/03/12 10:40:57;;;;;;;20.83;12.00;;;;;;;;;;4976133;28;20055;-75
2022/03/12 10:43:24;;;;;;;17.70;10.57;;;;;;;;;;4976511;28;20062;-76
2022/03/12 10:45:58;;;;;;;22.58;12.73;;;;;;;;;;4976087;28;20050;-76
2022/03/12 10:48:28;;;;;;;21.30;11.63;;;;;;;;;;4978336;28;20047;-75
2022/03/12 10:50:56;;;;;;;23.13;12.93;;;;;;;;;;4976011;28;20061;-75
2022/03/12 10:53:26;;;;;;;22.60;13.07;;;;;;;;;;4977667;28;20050;-75
2022/03/12 10:55:53;;;;;;;28.50;16.75;;;;;;;;;;4975975;28;20146;-75
2022/03/12 10:58:22;;;;;;;25.60;13.52;;;;;;;;;;4976652;28;20047;-74
2022/03/12 11:00:51;;;;;;;33.85;17.00;;;;;;;;;;4976554;28;20141;-75
2022/03/12 11:03:21;;;;;;;25.10;12.93;;;;;;;;;;4975865;28;20504;-73
2022/03/12 11:05:51;;;;;;;24.15;12.88;;;;;;;;;;4976133;28;20527;-74
2022/03/12 11:08:20;;;;;;;23.83;13.50;;;;;;;;;;4975578;28;20142;-76
2022/03/12 11:10:51;;;;;;;24.15;12.73;;;;;;;;;;4975887;28;20141;-74
2022/03/12 11:13:37;;;;;;;;;;;;;;;;;;4976557;28;20050;-75
2022/03/12 11:16:32;;;;;;;22.30;12.48;;;;;;;;;;4975785;28;20090;-77
2022/03/12 11:19:07;;;;;;;23.45;13.38;;;;;;;;;;4963133;28;20054;-75
2022/03/12 11:21:37;;;;;;;27.23;14.65;;;;;;;;;;4975955;28;20595;-75
2022/03/12 11:24:06;;;;;;;27.93;15.00;;;;;;;;;;4976139;28;20077;-75
2022/03/12 11:26:46;;;;;;;21.75;13.02;;;;;;;;;;4975643;28;20057;-74
2022/03/12 11:29:14;;;;;;;22.52;12.85;;;;;;;;;;4975257;28;20373;-74
2022/03/12 11:31:43;;;;;;;23.95;13.95;;;;;;;;;;4975702;28;20054;-74
2022/03/12 11:34:23;;;;;;;24.35;13.80;;;;;;;;;;4975435;28;20043;-75
2022/03/12 11:37:04;;;;;;;24.55;14.02;;;;;;;;;;4974996;28;20210;-74
2022/03/12 11:39:34;;;;;;;28.40;13.63;;;;;;;;;;4974937;28;20149;-74
2022/03/12 11:42:13;;;;;;;27.10;13.90;;;;;;;;;;4975621;28;20412;-75
2022/03/12 11:44:46;;;;;;;27.92;15.43;;;;;;;;;;4975006;28;20059;-74
2022/03/12 11:47:14;;;;;;;23.77;14.52;;;;;;;;;;4975276;28;20054;-74
2022/03/12 11:49:42;;;;;;;26.42;13.70;;;;;;;;;;4974226;28;20058;-75
2022/03/12 11:52:09;;;;;;;26.42;14.40;;;;;;;;;;4975822;28;20416;-74
2022/03/12 11:54:43;;;;;;;27.65;14.52;;;;;;;;;;4975263;28;20533;-74
2022/03/12 11:57:15;;;;;;;24.55;14.05;;;;;;;;;;4974939;28;20101;-76
2022/03/12 11:59:43;;;;;;;31.67;15.65;;;;;;;;;;4975424;28;20657;-76
2022/03/12 12:02:25;;;;;;;32.92;15.68;;;;;;;;;;4975308;28;20054;-75
2022/03/12 12:04:53;;;;;;;28.85;14.40;;;;;;;;;;4974597;28;20098;-76
2022/03/12 12:07:20;;;;;;;27.15;15.82;;;;;;;;;;4974857;28;20106;-76
2022/03/12 12:09:47;;;;;;;26.45;15.80;;;;;;;;;;4974904;28;20043;-75
2022/03/12 12:12:16;;;;;;;28.85;15.57;;;;;;;;;;4975228;28;20050;-75
2022/03/12 12:14:44;;;;;;;24.65;14.18;;;;;;;;;;4974198;28;20411;-74
2022/03/12 12:17:12;;;;;;;27.23;13.85;;;;;;;;;;4974701;28;20054;-76
2022/03/12 12:19:39;;;;;;;24.77;13.77;;;;;;;;;;4974248;28;20080;-76
2022/03/12 12:22:07;;;;;;;26.15;14.93;;;;;;;;;;4974925;28;20412;-76
2022/03/12 12:24:39;;;;;;;27.42;15.27;;;;;;;;;;4974905;28;20504;-75
2022/03/12 12:27:07;;;;;;;29.83;15.45;;;;;;;;;;4974673;28;20484;-74
2022/03/12 12:29:47;;;;;;;27.20;15.10;;;;;;;;;;4975023;28;20423;-76
2022/03/12 12:32:15;;;;;;;27.98;14.10;;;;;;;;;;4974313;28;20047;-74
2022/03/12 12:35:16;;;;;;;26.92;14.60;;;;;;;;;;4974245;28;20047;-74
2022/03/12 12:37:51;;;;;;;26.48;13.88;;;;;;;;;;4974069;28;20062;-76
2022/03/12 12:40:27;;;;;;;28.63;16.50;;;;;;;;;;4974169;28;20051;-75
2022/03/12 12:42:57;;;;;;;25.40;14.73;;;;;;;;;;4974698;28;20051;-76
2022/03/12 12:45:28;;;;;;;28.80;14.77;;;;;;;;;;4974575;28;20054;-74
2022/03/12 12:48:07;;;;;;;25.63;14.93;;;;;;;;;;4975187;28;20082;-75
2022/03/12 12:50:34;;;;;;;27.67;14.68;;;;;;;;;;4974193;28;20043;-76
2022/03/12 12:53:14;;;;;;;25.90;15.57;;;;;;;;;;4974519;28;20093;-75
2022/03/12 12:55:42;;;;;;;28.90;16.17;;;;;;;;;;4973874;28;20082;-74
2022/03/12 12:58:09;;;;;;;29.98;14.73;;;;;;;;;;4974123;28;20055;-73
2022/03/12 13:00:43;;;;;;;26.33;14.60;;;;;;;;;;4974224;28;20055;-75
2022/03/12 13:03:22;;;;;;;27.38;14.55;;;;;;;;;;4974090;28;20070;-75
2022/03/12 13:05:56;;;;;;;27.75;14.50;;;;;;;;;;4974402;28;20062;-74
2022/03/12 13:08:26;;;;;;;28.10;16.23;;;;;;;;;;4974741;28;20097;-74
2022/03/12 13:10:56;;;;;;;28.73;16.38;;;;;;;;;;4975744;28;20484;-76
2022/03/12 13:13:26;;;;;;;27.88;15.02;;;;;;;;;;4974768;28;20211;-75
2022/03/12 13:15:56;;;;;;;31.75;15.57;;;;;;;;;;4975417;28;20433;-75
2022/03/12 13:18:40;;;;;;;;;;;;;;;;;;4974884;28;20055;-75
2022/03/12 13:21:26;;;;;;;26.15;14.85;;;;;;;;;;4973831;28;19973;-75
2022/03/12 13:23:53;;;;;;;25.23;14.95;;;;;;;;;;4973949;28;20050;-75
2022/03/12 13:26:22;;;;;;;26.23;15.13;;;;;;;;;;4974126;28;20101;-75
2022/03/12 13:28:53;;;;;;;26.98;16.33;;;;;;;;;;4974361;28;20062;-75
2022/03/12 13:31:30;;;;;;;28.15;16.05;;;;;;;;;;4974044;28;20468;-74
2022/03/12 13:34:02;;;;;;;30.33;16.00;;;;;;;;;;4974021;28;20086;-75
2022/03/12 13:36:32;;;;;;;25.70;14.85;;;;;;;;;;4973361;28;20055;-75
2022/03/12 13:39:00;;;;;;;28.77;16.38;;;;;;;;;;4973507;28;20158;-77
2022/03/12 13:41:28;;;;;;;30.70;15.77;;;;;;;;;;4973983;28;20059;-74
2022/03/12 13:43:57;;;;;;;28.58;17.38;;;;;;;;;;4973919;28;20564;-74
2022/03/12 13:46:28;;;;;;;29.15;15.38;;;;;;;;;;4973504;28;20053;-75
2022/03/12 13:49:06;;;;;;;27.48;14.82;;;;;;;;;;4973347;28;20137;-75
2022/03/12 13:51:34;;;;;;;29.15;15.35;;;;;;;;;;4973164;28;20050;-74
2022/03/12 13:54:03;;;;;;;28.55;16.20;;;;;;;;;;4973495;28;20051;-75
2022/03/12 13:56:32;;;;;;;27.08;15.38;;;;;;;;;;4973447;28;20111;-76
2022/03/12 13:59:04;;;;;;;27.80;15.55;;;;;;;;;;4973921;28;20405;-75
2022/03/12 14:01:36;;;;;;;25.30;15.43;;;;;;;;;;4973390;28;20142;-75
2022/03/12 14:04:08;;;;;;;26.05;15.02;;;;;;;;;;4973182;28;20058;-76
2022/03/12 14:06:39;;;;;;;26.75;13.55;;;;;;;;;;4973244;28;20082;-75
2022/03/12 14:09:08;;;;;;;24.50;14.63;;;;;;;;;;4973310;28;20046;-75
2022/03/12 14:11:38;;;;;;;23.60;14.30;;;;;;;;;;4973911;28;20520;-75
2022/03/12 14:14:10;;;;;;;27.13;14.80;;;;;;;;;;4982891;28;20050;-72
2022/03/12 14:16:41;;;;;;;28.30;16.33;;;;;;;;;;4981616;28;20043;-71
2022/03/12 14:19:12;;;;;;;25.90;15.07;;;;;;;;;;4981340;28;20424;-72
2022/03/12 14:21:42;;;;;;;25.02;14.55;;;;;;;;;;4976157;28;20137;-72
2022/03/12 14:24:20;;;;;;;24.60;13.48;;;;;;;;;;4976327;28;20125;-72
2022/03/12 14:26:51;;;;;;;25.10;13.80;;;;;;;;;;4976210;28;20050;-73
2022/03/12 14:29:23;;;;;;;25.08;15.63;;;;;;;;;;4976689;28;20051;-71
2022/03/12 14:31:51;;;;;;;23.05;13.45;;;;;;;;;;4976387;28;20069;-73
2022/03/12 14:34:20;;;;;;;28.02;13.90;;;;;;;;;;4976263;28;20393;-68
2022/03/12 14:36:50;;;;;;;22.80;13.18;;;;;;;;;;4975963;28;20397;-69